Red River Army Depot, Texas
Current Conditions -  °F | °C
As of 12:53 AM on Monday 24 Nov 2014 (Local Time) from KTXK Reporting Station
Overcast Overcast  
Wind Chill: 53°   Ceiling: 2600
Heat Index: 53°   Visibility: 10mi
Dew Point: 43°   Wind: 15mph
Humidity: 69%   Direction: 290°WNW
Pressure: 29.68"   Gusts: 23mph
Location:  33.3633°N, 94.2141°W
Report Text: KTXK 240653Z AUTO 29013G20KT 10SM OVC026 12/06 A2968 RMK AO2 SLP048 T01170061 $
Loading
Personal Weather Stations






























Interactive Weather Map New forecast layout! Learn more

10-Day Weather Forecast

Advertisements
Track Severe Weather on mobile